Time;durP1;ratioP1;P1;durP2;ratioP2;P2;SDS_P1;SDS_P2;PMS_P1;PMS_P2;Temp;Humidity;BMP_temperature;BMP_pressure;BME280_temperature;BME280_humidity;BME280_pressure;Samples;Min_cycle;Max_cycle;Signal;HPM_P1;HPM_P2
2023/07/18 00:01:42;;;;;;;9.55;4.10;;;31.30;90.30;;;;;;5034179;28;20063;-84
2023/07/18 00:04:07;;;;;;;7.78;3.78;;;31.30;90.60;;;;;;5034601;28;20052;-84
2023/07/18 00:06:33;;;;;;;9.07;3.92;;;31.30;90.80;;;;;;5035130;28;20465;-85
2023/07/18 00:08:59;;;;;;;8.48;3.90;;;31.20;91.00;;;;;;5034858;28;20038;-83
2023/07/18 00:11:25;;;;;;;9.00;3.95;;;31.20;91.20;;;;;;5035006;28;20072;-84
2023/07/18 00:13:51;;;;;;;7.85;4.45;;;31.20;91.40;;;;;;5034385;28;20021;-84
2023/07/18 00:16:16;;;;;;;12.80;4.38;;;31.20;91.40;;;;;;5034628;28;20037;-84
2023/07/18 00:18:42;;;;;;;5.57;4.13;;;31.10;91.60;;;;;;5034240;28;20025;-84
2023/07/18 00:21:08;;;;;;;7.90;4.55;;;31.10;91.70;;;;;;5016611;28;20052;-83
2023/07/18 00:23:34;;;;;;;9.18;4.25;;;31.00;91.80;;;;;;5034323;28;20018;-81
2023/07/18 00:26:00;;;;;;;10.02;4.88;;;31.00;91.70;;;;;;5033986;28;20067;-81
2023/07/18 00:28:25;;;;;;;10.18;5.00;;;31.00;91.90;;;;;;5033937;28;20029;-81
2023/07/18 00:30:51;;;;;;;5.85;4.20;;;30.90;92.00;;;;;;5015647;28;20037;-81
2023/07/18 00:33:17;;;;;;;9.38;4.82;;;30.80;91.90;;;;;;5034128;28;20060;-81
2023/07/18 00:35:43;;;;;;;7.38;4.90;;;30.80;91.90;;;;;;5033641;28;20037;-81
2023/07/18 00:38:11;;;;;;;8.13;4.75;;;30.80;92.00;;;;;;5033638;28;20104;-81
2023/07/18 00:40:40;;;;;;;7.25;4.70;;;30.70;92.00;;;;;;5033823;28;20051;-81
2023/07/18 00:43:14;;;;;;;10.30;4.85;;;30.70;92.10;;;;;;5034016;28;20358;-81
2023/07/18 00:45:41;;;;;;;7.03;4.30;;;30.70;92.10;;;;;;5033769;28;20033;-81
2023/07/18 00:48:07;;;;;;;7.50;5.00;;;30.70;92.10;;;;;;5033873;28;20490;-81
2023/07/18 00:50:33;;;;;;;9.65;5.35;;;30.60;92.20;;;;;;5033560;28;20240;-81
2023/07/18 00:53:00;;;;;;;6.75;4.78;;;30.60;92.20;;;;;;5033470;28;20013;-81
2023/07/18 00:55:27;;;;;;;8.07;5.05;;;30.50;92.30;;;;;;5033182;28;20108;-81
2023/07/18 00:57:53;;;;;;;8.88;5.55;;;30.50;92.30;;;;;;5033010;28;20385;-81
2023/07/18 01:00:22;;;;;;;12.07;5.65;;;30.50;92.50;;;;;;5032667;28;20034;-81
2023/07/18 01:02:49;;;;;;;6.55;4.20;;;30.50;92.60;;;;;;5033081;28;20452;-81
2023/07/18 01:05:16;;;;;;;6.07;4.63;;;30.40;92.60;;;;;;5033633;28;20385;-81
2023/07/18 01:07:42;;;;;;;12.20;5.47;;;30.40;92.70;;;;;;5033437;28;20028;-81
2023/07/18 01:10:23;;;;;;;11.05;7.95;;;30.40;92.70;;;;;;5032973;28;20036;-81
2023/07/18 01:12:50;;;;;;;9.98;5.97;;;30.40;93.00;;;;;;5015417;28;20489;-81
2023/07/18 01:15:16;;;;;;;7.72;5.20;;;30.30;92.90;;;;;;5033144;28;20151;-81
2023/07/18 01:17:44;;;;;;;10.45;5.10;;;30.30;93.00;;;;;;5015644;28;20033;-81
2023/07/18 01:20:14;;;;;;;12.32;5.47;;;30.30;93.00;;;;;;5015100;28;20033;-81
2023/07/18 01:22:40;;;;;;;8.75;5.03;;;30.30;93.00;;;;;;5033048;28;20327;-84
2023/07/18 01:25:06;;;;;;;6.97;5.18;;;30.30;93.00;;;;;;5033357;28;20036;-84
2023/07/18 01:27:32;;;;;;;9.63;5.18;;;30.30;92.90;;;;;;5033653;28;20413;-83
2023/07/18 01:29:57;;;;;;;10.13;5.82;;;30.40;93.00;;;;;;5033036;28;20029;-83
2023/07/18 01:32:23;;;;;;;9.25;5.30;;;30.30;92.90;;;;;;5015319;28;20555;-84
2023/07/18 01:34:49;;;;;;;9.55;5.95;;;30.30;92.90;;;;;;5033503;28;20041;-84
2023/07/18 01:37:15;;;;;;;8.05;5.15;;;30.30;92.90;;;;;;5033397;28;20372;-83
2023/07/18 01:39:41;;;;;;;10.75;4.95;;;30.30;92.90;;;;;;5033337;28;20389;-84
2023/07/18 01:42:07;;;;;;;11.93;5.57;;;30.20;92.90;;;;;;5032589;28;20087;-84
2023/07/18 01:44:33;;;;;;;13.30;6.13;;;30.20;92.80;;;;;;5033419;28;20560;-84
2023/07/18 01:46:59;;;;;;;8.48;5.53;;;30.20;92.90;;;;;;5032552;28;20049;-84
2023/07/18 01:49:25;;;;;;;11.63;6.25;;;30.20;92.90;;;;;;5032495;28;20021;-84
2023/07/18 01:51:51;;;;;;;8.20;5.90;;;30.20;92.90;;;;;;5032692;28;20473;-84
2023/07/18 01:54:16;;;;;;;14.15;7.32;;;30.10;92.90;;;;;;5032885;28;20033;-84
2023/07/18 01:56:42;;;;;;;9.73;6.22;;;30.10;93.20;;;;;;5033128;28;20040;-84
2023/07/18 01:59:08;;;;;;;12.23;7.25;;;30.00;93.10;;;;;;5033033;28;20529;-84
2023/07/18 02:01:33;;;;;;;7.90;6.20;;;30.00;93.40;;;;;;5032919;28;20025;-84
2023/07/18 02:03:59;;;;;;;7.82;6.00;;;30.10;93.50;;;;;;5032883;28;20021;-84
2023/07/18 02:06:25;;;;;;;12.45;7.65;;;30.10;93.60;;;;;;5033141;28;20107;-84
2023/07/18 02:08:51;;;;;;;13.13;6.75;;;30.00;94.20;;;;;;5032728;28;20147;-84
2023/07/18 02:11:17;;;;;;;10.15;6.13;;;30.00;93.80;;;;;;5032564;28;20038;-84
2023/07/18 02:13:43;;;;;;;13.75;6.55;;;30.00;93.90;;;;;;5033017;28;20026;-83
2023/07/18 02:16:08;;;;;;;10.25;7.85;;;30.00;94.00;;;;;;5033041;28;20377;-83
2023/07/18 02:18:34;;;;;;;11.45;7.03;;;30.00;94.30;;;;;;5033050;28;20100;-84
2023/07/18 02:21:00;;;;;;;13.57;7.43;;;30.00;94.30;;;;;;5032724;28;20030;-83
2023/07/18 02:23:25;;;;;;;8.70;7.13;;;30.00;94.60;;;;;;5032819;28;20014;-84
2023/07/18 02:25:51;;;;;;;11.88;7.15;;;30.00;94.40;;;;;;5032718;28;20461;-84
2023/07/18 02:28:17;;;;;;;11.30;6.78;;;30.00;94.50;;;;;;5014630;28;20037;-83
2023/07/18 02:30:43;;;;;;;7.03;6.05;;;30.00;94.60;;;;;;5032759;28;20461;-84
2023/07/18 02:33:09;;;;;;;11.00;7.63;;;30.00;94.60;;;;;;5032948;28;20557;-84
2023/07/18 02:35:36;;;;;;;9.20;6.97;;;29.90;94.70;;;;;;5032869;28;20054;-84
2023/07/18 02:38:01;;;;;;;10.45;7.07;;;29.90;94.70;;;;;;5032672;28;20026;-84
2023/07/18 02:40:27;;;;;;;9.82;6.57;;;30.00;94.80;;;;;;5032419;28;20029;-84
2023/07/18 02:42:53;;;;;;;12.93;7.68;;;29.90;94.90;;;;;;5032759;28;20197;-84
2023/07/18 02:45:18;;;;;;;9.63;7.18;;;29.90;94.90;;;;;;5032522;28;20381;-84
2023/07/18 02:47:44;;;;;;;10.07;7.07;;;29.90;94.80;;;;;;5032855;28;20377;-84
2023/07/18 02:50:10;;;;;;;11.02;7.15;;;29.90;94.90;;;;;;5032162;28;20473;-84
2023/07/18 02:52:36;;;;;;;10.45;7.07;;;29.90;94.90;;;;;;5033094;28;20504;-84
2023/07/18 02:55:03;;;;;;;12.18;6.80;;;29.90;94.90;;;;;;5035767;28;20033;-84
2023/07/18 02:57:28;;;;;;;14.65;8.73;;;29.90;94.90;;;;;;5035911;28;20025;-84
2023/07/18 02:59:54;;;;;;;18.30;8.55;;;29.90;95.00;;;;;;5035662;28;20139;-84
2023/07/18 03:02:20;;;;;;;10.32;6.63;;;29.90;95.00;;;;;;5035919;28;20026;-84
2023/07/18 03:04:49;;;;;;;12.88;7.88;;;29.90;95.10;;;;;;5036040;28;20021;-84
2023/07/18 03:07:17;;;;;;;11.68;7.50;;;29.90;95.20;;;;;;5035803;28;20041;-85
2023/07/18 03:09:43;;;;;;;10.07;7.32;;;29.90;95.10;;;;;;5035485;28;20048;-84
2023/07/18 03:12:10;;;;;;;11.85;7.68;;;29.90;95.20;;;;;;5035094;28;20482;-83
2023/07/18 03:14:36;;;;;;;10.77;7.47;;;29.80;95.10;;;;;;5035376;28;20097;-84
2023/07/18 03:17:01;;;;;;;11.55;8.13;;;29.80;95.10;;;;;;5035368;28;20053;-84
2023/07/18 03:19:27;;;;;;;13.70;7.82;;;29.80;95.00;;;;;;5035476;28;20401;-84
2023/07/18 03:21:53;;;;;;;13.35;7.22;;;29.70;94.80;;;;;;5035275;28;20039;-84
2023/07/18 03:24:18;;;;;;;10.50;6.88;;;29.70;94.70;;;;;;5035142;28;20033;-84
2023/07/18 03:26:44;;;;;;;9.57;7.10;;;29.70;94.60;;;;;;5035289;28;20092;-83
2023/07/18 03:29:10;;;;;;;10.27;7.55;;;29.70;94.40;;;;;;5035108;28;20088;-83
2023/07/18 03:31:35;;;;;;;9.25;6.50;;;29.70;94.30;;;;;;5035253;28;20053;-83
2023/07/18 03:34:01;;;;;;;13.82;7.00;;;29.70;94.30;;;;;;5035604;28;20060;-84
2023/07/18 03:36:27;;;;;;;10.52;6.65;;;29.70;94.30;;;;;;5035146;28;20053;-83
2023/07/18 03:38:53;;;;;;;8.80;6.30;;;29.70;94.50;;;;;;5035058;28;20040;-83
2023/07/18 03:41:19;;;;;;;9.43;6.50;;;29.60;94.20;;;;;;5034937;28;20481;-83
2023/07/18 03:43:45;;;;;;;15.52;7.97;;;29.60;94.20;;;;;;5035086;28;20025;-83
2023/07/18 03:46:10;;;;;;;10.15;7.18;;;29.60;94.20;;;;;;5035441;28;20100;-84
2023/07/18 03:48:37;;;;;;;11.23;7.38;;;29.60;94.20;;;;;;5035200;28;20030;-83
2023/07/18 03:51:05;;;;;;;10.77;7.13;;;29.60;94.30;;;;;;5034890;28;20033;-83
2023/07/18 03:53:31;;;;;;;10.90;7.57;;;29.60;94.30;;;;;;5017156;28;20036;-83
2023/07/18 03:56:03;;;;;;;10.98;7.40;;;29.60;94.30;;;;;;5035307;28;20030;-83
2023/07/18 03:58:29;;;;;;;9.35;6.85;;;29.60;94.30;;;;;;5035058;28;20025;-84
2023/07/18 04:00:55;;;;;;;10.40;7.40;;;29.60;94.60;;;;;;5034665;28;20025;-83
2023/07/18 04:03:21;;;;;;;11.93;8.77;;;29.60;94.40;;;;;;5034735;28;20029;-84
2023/07/18 04:05:47;;;;;;;13.27;7.95;;;29.50;94.50;;;;;;5034496;28;20032;-84
2023/07/18 04:08:12;;;;;;;12.35;7.03;;;29.50;94.60;;;;;;5017241;28;20477;-84
2023/07/18 04:10:38;;;;;;;13.77;8.95;;;29.50;94.70;;;;;;5034853;28;20105;-84
2023/07/18 04:13:04;;;;;;;13.02;9.10;;;29.50;94.80;;;;;;5034587;28;20362;-84
2023/07/18 04:15:29;;;;;;;10.93;7.50;;;29.50;94.80;;;;;;5034426;28;20468;-84
2023/07/18 04:17:55;;;;;;;11.65;8.15;;;29.50;94.90;;;;;;5034660;28;20565;-83
2023/07/18 04:20:21;;;;;;;15.02;9.45;;;29.50;94.90;;;;;;5034488;28;20492;-84
2023/07/18 04:22:47;;;;;;;10.95;7.82;;;29.50;94.90;;;;;;5033991;28;20062;-83
2023/07/18 04:25:13;;;;;;;13.75;8.25;;;29.50;94.80;;;;;;5034089;28;20033;-84
2023/07/18 04:27:39;;;;;;;13.50;7.32;;;29.50;94.70;;;;;;5034665;28;20049;-83
2023/07/18 04:30:06;;;;;;;11.73;7.32;;;29.50;94.60;;;;;;5034579;28;20029;-83
2023/07/18 04:32:31;;;;;;;14.23;7.97;;;29.50;94.70;;;;;;5034381;28;20049;-83
2023/07/18 04:34:57;;;;;;;8.30;6.25;;;29.50;94.30;;;;;;5015835;28;20029;-83
2023/07/18 04:37:23;;;;;;;8.88;7.22;;;29.50;94.20;;;;;;5034085;28;20112;-84
2023/07/18 04:39:49;;;;;;;8.35;6.05;;;29.40;94.20;;;;;;5034066;28;20032;-84
2023/07/18 04:42:15;;;;;;;12.27;7.55;;;29.40;94.10;;;;;;5016582;28;20437;-83
2023/07/18 04:44:41;;;;;;;11.15;6.40;;;29.50;94.10;;;;;;5034027;28;20022;-83
2023/07/18 04:47:08;;;;;;;8.82;6.43;;;29.40;94.00;;;;;;5034040;28;20476;-83
2023/07/18 04:49:34;;;;;;;6.78;5.63;;;29.40;93.80;;;;;;5033455;28;20037;-83
2023/07/18 04:51:59;;;;;;;10.30;6.40;;;29.40;93.80;;;;;;5033512;28;20025;-84
2023/07/18 04:54:25;;;;;;;9.35;6.38;;;29.40;93.80;;;;;;5015311;28;20456;-83
2023/07/18 04:56:53;;;;;;;10.75;5.68;;;29.40;93.70;;;;;;5015159;28;20477;-83
2023/07/18 04:59:19;;;;;;;11.25;6.38;;;29.40;93.90;;;;;;5033314;28;20497;-84
2023/07/18 05:01:44;;;;;;;10.10;6.22;;;29.50;93.70;;;;;;5014955;28;20053;-84
2023/07/18 05:04:10;;;;;;;6.88;5.93;;;29.50;93.60;;;;;;5032754;28;20061;-84
2023/07/18 05:06:36;;;;;;;9.50;5.93;;;29.50;93.50;;;;;;5032577;28;20474;-87
2023/07/18 05:09:03;;;;;;;7.15;5.25;;;29.50;93.40;;;;;;5032702;28;20040;-87
2023/07/18 05:11:29;;;;;;;9.30;5.57;;;29.60;93.40;;;;;;5033684;28;20021;-87
2023/07/18 05:13:54;;;;;;;9.98;6.70;;;29.60;93.20;;;;;;5033870;28;20030;-80
2023/07/18 05:16:20;;;;;;;6.90;5.40;;;29.60;93.00;;;;;;5028792;28;20145;-80
2023/07/18 05:18:46;;;;;;;10.50;5.55;;;29.60;93.00;;;;;;5030972;28;20469;-81
2023/07/18 05:21:11;;;;;;;7.32;4.93;;;29.60;92.90;;;;;;5028496;28;20026;-80
2023/07/18 05:23:37;;;;;;;9.07;5.70;;;29.60;92.70;;;;;;5013940;28;20029;-81
2023/07/18 05:26:03;;;;;;;12.50;5.45;;;29.60;92.60;;;;;;5031284;28;20033;-81
2023/07/18 05:28:29;;;;;;;6.38;4.68;;;29.60;92.60;;;;;;5032263;28;20021;-81
2023/07/18 05:30:55;;;;;;;9.95;5.55;;;29.70;92.40;;;;;;5032801;28;20138;-81
2023/07/18 05:33:20;;;;;;;8.07;5.82;;;29.70;92.40;;;;;;5030895;28;20441;-81
2023/07/18 05:35:47;;;;;;;8.50;5.13;;;29.70;92.20;;;;;;5029778;28;20470;-81
2023/07/18 05:38:13;;;;;;;5.43;4.85;;;29.70;91.90;;;;;;5030078;28;20060;-81
2023/07/18 05:40:38;;;;;;;11.02;6.38;;;29.70;91.90;;;;;;5031997;28;20446;-81
2023/07/18 05:43:04;;;;;;;9.85;5.32;;;29.70;92.00;;;;;;5014695;28;20496;-81
2023/07/18 05:45:30;;;;;;;7.85;5.57;;;29.80;92.00;;;;;;5014643;28;20026;-81
2023/07/18 05:47:55;;;;;;;8.00;4.80;;;29.80;91.80;;;;;;5014629;28;20102;-81
2023/07/18 05:50:21;;;;;;;7.32;4.93;;;29.80;91.60;;;;;;5032624;28;20030;-81
2023/07/18 05:52:48;;;;;;;7.43;5.07;;;29.80;91.50;;;;;;5032375;28;20030;-81
2023/07/18 05:55:14;;;;;;;8.15;4.57;;;29.80;91.50;;;;;;5032780;28;20033;-86
2023/07/18 05:57:40;;;;;;;6.35;4.72;;;29.80;91.40;;;;;;5032175;28;20415;-84
2023/07/18 06:00:06;;;;;;;5.75;4.35;;;29.90;91.40;;;;;;5032392;28;20466;-85
2023/07/18 06:02:34;;;;;;;5.90;4.32;;;29.90;91.30;;;;;;5032516;28;20373;-81
2023/07/18 06:05:00;;;;;;;6.32;4.47;;;29.90;90.90;;;;;;5014721;28;20040;-81
2023/07/18 06:07:26;;;;;;;9.95;5.80;;;29.90;90.90;;;;;;5032958;28;20021;-82
2023/07/18 06:09:52;;;;;;;7.78;4.43;;;29.90;90.40;;;;;;5014986;28;20385;-81
2023/07/18 06:12:17;;;;;;;8.05;4.60;;;29.90;90.60;;;;;;5032903;28;20493;-82
2023/07/18 06:14:43;;;;;;;6.68;5.10;;;30.00;90.50;;;;;;5032888;28;20104;-82
2023/07/18 06:17:09;;;;;;;7.95;4.18;;;30.00;90.20;;;;;;5014883;28;20367;-82
2023/07/18 06:19:35;;;;;;;6.43;4.53;;;30.10;90.10;;;;;;5014942;28;20041;-82
2023/07/18 06:22:00;;;;;;;8.85;4.45;;;30.10;90.10;;;;;;5014901;28;20048;-82
2023/07/18 06:24:26;;;;;;;6.47;4.10;;;30.10;89.90;;;;;;5032960;28;20080;-82
2023/07/18 06:26:52;;;;;;;7.47;4.07;;;30.10;89.90;;;;;;5033000;28;20101;-82
2023/07/18 06:29:19;;;;;;;8.23;5.50;;;30.20;89.60;;;;;;5036617;28;20052;-82
2023/07/18 06:31:50;;;;;;;7.13;4.32;;;30.20;89.10;;;;;;5018936;28;20432;-81
2023/07/18 06:34:19;;;;;;;6.32;4.35;;;30.20;88.90;;;;;;5036455;28;20533;-83
2023/07/18 06:36:45;;;;;;;9.30;4.03;;;30.20;88.30;;;;;;5036582;28;20026;-82
2023/07/18 06:39:11;;;;;;;6.43;3.88;;;30.20;88.40;;;;;;5036490;28;20029;-82
2023/07/18 06:41:37;;;;;;;4.55;3.83;;;30.30;87.90;;;;;;5019077;28;20374;-82
2023/07/18 06:44:05;;;;;;;8.07;4.65;;;30.30;87.80;;;;;;5036532;28;20091;-82
2023/07/18 06:46:31;;;;;;;8.30;3.97;;;30.40;87.30;;;;;;5036571;28;20041;-82
2023/07/18 06:48:57;;;;;;;4.45;3.85;;;30.40;86.50;;;;;;5036644;28;20065;-82
2023/07/18 06:51:25;;;;;;;7.55;4.18;;;30.50;86.50;;;;;;5036342;28;20025;-82
2023/07/18 06:53:52;;;;;;;8.38;3.92;;;30.60;86.30;;;;;;5036328;28;20037;-82
2023/07/18 06:56:18;;;;;;;7.55;4.28;;;30.60;86.20;;;;;;5035906;28;20037;-82
2023/07/18 06:58:43;;;;;;;7.80;3.92;;;30.70;86.10;;;;;;5035971;28;20033;-82
2023/07/18 07:01:10;;;;;;;5.32;3.63;;;30.80;85.20;;;;;;5036558;28;20032;-82
2023/07/18 07:03:36;;;;;;;5.47;3.80;;;30.80;85.10;;;;;;5036167;28;20029;-82
2023/07/18 07:06:08;;;;;;;8.68;4.35;;;30.80;84.20;;;;;;5035494;28;20032;-82
2023/07/18 07:08:33;;;;;;;6.68;4.00;;;30.90;84.20;;;;;;5036362;28;20037;-82
2023/07/18 07:11:04;;;;;;;8.18;4.15;;;31.00;84.00;;;;;;5035979;28;20021;-82
2023/07/18 07:13:30;;;;;;;7.10;4.03;;;31.00;83.90;;;;;;5017806;28;20032;-82
2023/07/18 07:15:56;;;;;;;5.95;3.60;;;31.10;83.90;;;;;;5035366;28;20030;-82
2023/07/18 07:18:22;;;;;;;5.75;3.97;;;31.20;83.40;;;;;;5035198;28;20034;-82
2023/07/18 07:20:47;;;;;;;11.23;4.68;;;31.20;83.20;;;;;;5017581;28;20021;-82
2023/07/18 07:23:13;;;;;;;6.40;4.13;;;31.20;83.20;;;;;;5035261;28;20021;-82
2023/07/18 07:25:39;;;;;;;11.68;5.40;;;31.30;82.70;;;;;;5035156;28;20026;-82
2023/07/18 07:28:05;;;;;;;9.50;4.00;;;31.30;80.70;;;;;;5034828;28;20025;-82
2023/07/18 07:30:31;;;;;;;7.85;5.05;;;31.40;81.80;;;;;;5035375;28;20064;-82
2023/07/18 07:32:57;;;;;;;9.18;4.18;;;31.40;81.20;;;;;;5034925;28;20076;-82
2023/07/18 07:35:22;;;;;;;6.55;3.75;;;31.50;80.80;;;;;;5016740;28;20429;-82
2023/07/18 07:37:50;;;;;;;8.55;4.13;;;31.50;80.50;;;;;;5017158;28;20029;-82
2023/07/18 07:40:17;;;;;;;5.85;3.60;;;31.50;80.80;;;;;;5034103;28;20032;-82
2023/07/18 07:42:44;;;;;;;6.00;3.67;;;31.50;80.60;;;;;;5035025;28;20547;-81
2023/07/18 07:45:11;;;;;;;8.05;4.38;;;31.60;80.20;;;;;;5035111;28;20028;-82
2023/07/18 07:47:37;;;;;;;7.53;4.10;;;31.70;80.20;;;;;;5034760;28;20021;-82
2023/07/18 07:50:04;;;;;;;6.10;4.00;;;31.70;80.70;;;;;;5034893;28;20032;-82
2023/07/18 07:52:29;;;;;;;6.97;3.95;;;31.70;80.00;;;;;;5034843;28;20112;-82
2023/07/18 07:54:56;;;;;;;8.88;4.63;;;31.80;79.60;;;;;;5034974;28;20096;-82
2023/07/18 07:57:23;;;;;;;6.88;3.97;;;31.90;79.30;;;;;;5035306;28;20025;-82
2023/07/18 07:59:50;;;;;;;12.38;3.85;;;31.90;79.30;;;;;;5035277;28;20057;-82
2023/07/18 08:02:17;;;;;;;7.63;3.95;;;32.00;79.60;;;;;;5034953;28;20029;-82
2023/07/18 08:04:43;;;;;;;4.72;3.40;;;32.00;78.70;;;;;;5034925;28;20616;-82
2023/07/18 08:07:09;;;;;;;4.55;3.70;;;32.00;78.80;;;;;;5034460;28;20113;-82
2023/07/18 08:09:36;;;;;;;8.52;4.35;;;32.10;78.50;;;;;;5034421;28;20076;-82
2023/07/18 08:12:05;;;;;;;9.93;4.30;;;32.10;78.60;;;;;;5034722;28;20021;-82
2023/07/18 08:14:34;;;;;;;4.32;3.30;;;32.20;79.00;;;;;;5016551;28;20052;-82
2023/07/18 08:17:02;;;;;;;6.93;3.95;;;32.30;78.70;;;;;;5034440;28;20025;-82
2023/07/18 08:19:27;;;;;;;8.73;4.97;;;32.30;78.30;;;;;;5034377;28;20111;-82
2023/07/18 08:21:53;;;;;;;4.40;3.50;;;32.40;77.00;;;;;;5034748;28;20076;-82
2023/07/18 08:24:19;;;;;;;5.05;3.60;;;32.40;78.20;;;;;;5033988;28;20461;-82
2023/07/18 08:26:45;;;;;;;9.40;4.38;;;32.50;78.50;;;;;;5034292;28;20022;-82
2023/07/18 08:29:11;;;;;;;8.13;4.22;;;32.50;77.30;;;;;;5033749;28;20028;-82
2023/07/18 08:31:37;;;;;;;4.55;3.60;;;32.60;76.90;;;;;;5033368;28;20048;-82
2023/07/18 08:34:02;;;;;;;6.35;3.78;;;32.60;77.30;;;;;;5016421;28;20486;-82
2023/07/18 08:36:29;;;;;;;5.45;3.97;;;32.60;77.40;;;;;;5034379;28;20032;-82
2023/07/18 08:38:54;;;;;;;4.65;3.75;;;32.70;77.20;;;;;;5033572;28;20022;-82
2023/07/18 08:41:21;;;;;;;4.78;3.75;;;32.80;77.00;;;;;;5034315;28;20109;-82
2023/07/18 08:43:47;;;;;;;10.35;4.10;;;32.80;77.40;;;;;;5033897;28;20030;-82
2023/07/18 08:46:16;;;;;;;8.73;3.90;;;32.90;76.50;;;;;;5034246;28;20031;-82
2023/07/18 08:48:45;;;;;;;;;;;33.00;76.00;;;;;;5034663;28;20025;-81
2023/07/18 08:51:12;;;;;;;7.10;3.63;;;33.00;75.60;;;;;;5016129;28;19955;-82
2023/07/18 08:53:41;;;;;;;8.35;3.90;;;33.00;76.10;;;;;;5034401;28;20037;-82
2023/07/18 08:56:08;;;;;;;7.60;3.53;;;33.10;76.00;;;;;;5034364;28;20105;-82
2023/07/18 08:58:36;;;;;;;4.32;3.90;;;33.20;75.90;;;;;;5015946;28;20048;-82
2023/07/18 09:01:05;;;;;;;7.32;4.25;;;33.20;75.90;;;;;;5015764;28;20028;-82
2023/07/18 09:03:31;;;;;;;8.10;4.10;;;33.30;75.00;;;;;;5033624;28;20040;-82
2023/07/18 09:06:01;;;;;;;8.95;3.50;;;33.40;75.80;;;;;;5033502;28;20018;-82
2023/07/18 09:08:26;;;;;;;;;;;33.40;75.70;;;;;;5034032;28;20037;-82
2023/07/18 09:11:02;;;;;;;8.82;4.57;;;33.50;74.90;;;;;;5034067;28;19992;-82
2023/07/18 09:13:31;;;;;;;5.68;3.33;;;33.50;74.30;;;;;;5033721;28;20025;-82
2023/07/18 09:15:56;;;;;;;5.32;3.72;;;33.60;74.50;;;;;;5033761;28;20041;-82
2023/07/18 09:18:23;;;;;;;12.15;4.50;;;33.70;74.90;;;;;;5033673;28;20022;-82
2023/07/18 09:20:48;;;;;;;10.90;4.65;;;33.70;74.40;;;;;;5033759;28;20026;-82
2023/07/18 09:23:14;;;;;;;7.63;4.28;;;33.70;74.20;;;;;;5033590;28;20030;-82
2023/07/18 09:25:40;;;;;;;7.72;3.83;;;33.70;73.30;;;;;;5015752;28;20021;-82
2023/07/18 09:28:09;;;;;;;4.60;3.47;;;33.80;74.40;;;;;;5033517;28;20041;-82
2023/07/18 09:30:35;;;;;;;4.35;3.60;;;33.80;74.40;;;;;;5032327;28;20033;-82
2023/07/18 09:33:05;;;;;;;6.53;3.83;;;33.90;74.40;;;;;;5032017;28;20037;-82
2023/07/18 09:35:36;;;;;;;7.20;4.55;;;33.90;74.80;;;;;;5023230;28;20083;-82
2023/07/18 09:38:02;;;;;;;7.38;4.78;;;34.00;74.40;;;;;;5015969;28;20030;-82
2023/07/18 09:40:28;;;;;;;4.15;3.53;;;34.00;72.90;;;;;;5033425;28;20474;-82
2023/07/18 09:42:55;;;;;;;3.78;3.28;;;34.10;73.60;;;;;;5032730;28;20025;-82
2023/07/18 09:45:22;;;;;;;6.45;4.13;;;34.20;73.60;;;;;;5032878;28;20026;-82
2023/07/18 09:47:48;;;;;;;5.47;3.60;;;34.30;73.50;;;;;;5031211;28;20038;-86
2023/07/18 09:50:14;;;;;;;6.60;4.00;;;34.40;73.80;;;;;;5033666;28;20048;-86
2023/07/18 09:52:44;;;;;;;6.68;4.28;;;34.40;73.40;;;;;;5014177;28;20030;-85
2023/07/18 09:55:10;;;;;;;11.20;4.18;;;34.50;73.90;;;;;;5032789;28;20038;-85
2023/07/18 09:57:41;;;;;;;8.35;4.32;;;34.60;73.30;;;;;;5033017;28;20045;-85
2023/07/18 10:00:11;;;;;;;5.78;4.32;;;34.70;72.10;;;;;;5032377;28;20017;-83
2023/07/18 10:02:38;;;;;;;6.82;3.58;;;34.70;71.10;;;;;;5016562;28;20037;-83
2023/07/18 10:05:05;;;;;;;5.85;3.67;;;34.80;71.20;;;;;;5031453;28;20405;-83
2023/07/18 10:07:33;;;;;;;8.15;3.97;;;34.80;70.80;;;;;;5030481;28;20481;-83
2023/07/18 10:10:01;;;;;;;8.00;3.70;;;34.90;70.50;;;;;;5027074;28;20034;-83
2023/07/18 10:12:27;;;;;;;4.28;3.40;;;35.00;71.00;;;;;;5028528;28;20040;-83
2023/07/18 10:14:56;;;;;;;5.97;3.55;;;35.10;71.10;;;;;;5011626;28;20029;-83
2023/07/18 10:17:40;;;;;;;;;;;35.20;70.50;;;;;;5025030;28;20022;-83
2023/07/18 10:20:11;;;;;;;4.63;3.78;;;35.30;68.80;;;;;;5022582;28;20001;-82
2023/07/18 10:22:46;;;;;;;7.70;4.35;;;35.20;68.50;;;;;;5030581;28;20013;-82
2023/07/18 10:25:12;;;;;;;6.63;3.40;;;35.30;69.40;;;;;;5034789;28;20113;-83
2023/07/18 10:27:40;;;;;;;5.35;3.17;;;35.40;69.30;;;;;;5016860;28;20068;-83
2023/07/18 10:30:06;;;;;;;9.77;3.97;;;35.50;69.60;;;;;;5033555;28;20537;-82
2023/07/18 10:32:33;;;;;;;6.28;4.35;;;35.60;69.90;;;;;;5036710;28;20069;-83
2023/07/18 10:35:00;;;;;;;4.93;3.85;;;35.70;69.40;;;;;;5034930;28;20040;-82
2023/07/18 10:37:26;;;;;;;6.80;4.18;;;35.80;68.40;;;;;;5030356;28;20104;-84
2023/07/18 10:39:53;;;;;;;4.93;3.58;;;35.90;68.80;;;;;;5029823;28;20474;-83
2023/07/18 10:42:29;;;;;;;5.70;3.45;;;36.00;68.30;;;;;;5015893;28;20108;-83
2023/07/18 10:44:57;;;;;;;7.32;3.75;;;36.10;68.30;;;;;;5021712;28;20029;-86
2023/07/18 10:47:24;;;;;;;11.63;7.40;;;36.20;68.90;;;;;;5028204;28;20030;-84
2023/07/18 10:49:50;;;;;;;12.27;7.70;;;36.30;68.70;;;;;;5019960;28;20061;-84
2023/07/18 10:52:17;;;;;;;5.95;5.10;;;36.40;68.60;;;;;;5023283;28;20040;-85
2023/07/18 10:54:45;;;;;;;6.18;3.85;;;36.40;68.60;;;;;;5036645;28;20079;-84
2023/07/18 10:57:11;;;;;;;5.32;3.17;;;36.50;68.80;;;;;;5032642;28;20022;-84
2023/07/18 10:59:36;;;;;;;4.85;3.85;;;36.60;68.50;;;;;;5031473;28;20033;-84
2023/07/18 11:02:03;;;;;;;5.10;3.55;;;36.80;68.30;;;;;;5036342;28;20377;-84
2023/07/18 11:04:29;;;;;;;4.95;3.55;;;36.90;68.10;;;;;;5031212;28;20092;-85
2023/07/18 11:06:56;;;;;;;6.15;3.35;;;37.00;67.50;;;;;;5029700;28;20537;-84
2023/07/18 11:09:22;;;;;;;5.95;3.50;;;37.00;67.40;;;;;;5016556;28;20026;-84
2023/07/18 11:11:49;;;;;;;7.13;3.08;;;37.10;66.70;;;;;;5025953;28;20026;-83
2023/07/18 11:14:15;;;;;;;6.00;3.58;;;37.30;66.90;;;;;;5018333;28;20049;-85
2023/07/18 11:16:42;;;;;;;4.13;3.20;;;37.40;66.70;;;;;;5018335;28;20365;-83
2023/07/18 11:19:08;;;;;;;10.10;4.22;;;37.50;66.80;;;;;;5036218;28;20061;-84
2023/07/18 11:21:36;;;;;;;7.70;4.10;;;37.70;64.80;;;;;;5035221;28;20501;-84
2023/07/18 11:24:02;;;;;;;6.57;3.70;;;37.80;65.60;;;;;;5035496;28;20033;-83
2023/07/18 11:26:28;;;;;;;5.72;3.40;;;38.00;65.60;;;;;;5035638;28;20022;-83
2023/07/18 11:28:57;;;;;;;12.25;4.25;;;38.00;65.40;;;;;;5017364;28;20033;-83
2023/07/18 11:31:30;;;;;;;8.17;3.87;;;38.20;65.00;;;;;;5035247;28;20359;-83
2023/07/18 11:34:05;;;;;;;3.95;3.25;;;38.40;64.10;;;;;;5035641;28;20140;-83
2023/07/18 11:36:32;;;;;;;4.95;3.35;;;38.60;64.00;;;;;;5035565;28;20022;-83
2023/07/18 11:39:02;;;;;;;5.60;3.65;;;38.90;63.70;;;;;;5035545;28;20040;-83
2023/07/18 11:41:34;;;;;;;;;;;39.20;63.90;;;;;;5018222;28;20032;-82
2023/07/18 11:44:04;;;;;;;9.15;3.92;;;39.50;63.40;;;;;;4997927;28;20003;-83
2023/07/18 11:46:39;;;;;;;4.47;3.53;;;39.90;62.00;;;;;;5015211;28;20022;-83
2023/07/18 11:49:09;;;;;;;6.60;3.75;;;40.10;60.30;;;;;;5015763;28;20025;-82
2023/07/18 11:51:36;;;;;;;7.28;3.72;;;40.40;60.40;;;;;;5024570;28;20339;-83
2023/07/18 11:54:03;;;;;;;8.90;3.70;;;40.60;59.70;;;;;;5035083;28;20105;-83
2023/07/18 11:56:30;;;;;;;6.45;3.50;;;40.70;59.40;;;;;;5035369;28;20033;-83
2023/07/18 11:58:56;;;;;;;5.57;3.40;;;40.90;59.10;;;;;;5025898;28;20037;-83
2023/07/18 12:01:22;;;;;;;7.78;3.58;;;41.00;58.30;;;;;;5034855;28;20029;-83
2023/07/18 12:03:51;;;;;;;5.70;3.30;;;41.20;58.60;;;;;;5017852;28;20431;-82
2023/07/18 12:06:18;;;;;;;5.70;3.60;;;41.40;58.50;;;;;;5035328;28;20037;-83
2023/07/18 12:08:44;;;;;;;12.20;3.92;;;41.50;57.50;;;;;;5034999;28;20029;-83
2023/07/18 12:11:09;;;;;;;9.23;3.55;;;41.60;57.00;;;;;;5016494;28;20549;-82
2023/07/18 12:13:38;;;;;;;7.38;3.90;;;41.80;56.30;;;;;;5034492;28;20030;-83
2023/07/18 12:16:05;;;;;;;9.30;4.10;;;41.70;55.80;;;;;;5034923;28;20033;-83
2023/07/18 12:18:30;;;;;;;9.32;4.15;;;41.70;56.00;;;;;;5034299;28;20029;-83
2023/07/18 12:20:56;;;;;;;6.78;3.65;;;41.70;56.10;;;;;;5034309;28;20374;-82
2023/07/18 12:23:23;;;;;;;8.45;3.83;;;41.80;55.90;;;;;;5034351;28;20079;-82
2023/07/18 12:25:48;;;;;;;7.25;3.45;;;42.00;55.70;;;;;;5009625;28;20035;-82
2023/07/18 12:28:14;;;;;;;6.00;4.15;;;42.00;55.20;;;;;;5034592;28;20034;-82
2023/07/18 12:30:40;;;;;;;10.35;3.85;;;42.10;55.60;;;;;;5034190;28;20033;-82
2023/07/18 12:33:05;;;;;;;4.07;3.63;;;42.20;55.20;;;;;;5034428;28;20068;-82
2023/07/18 12:35:31;;;;;;;8.15;3.92;;;42.30;54.80;;;;;;5033726;28;20358;-82
2023/07/18 12:37:57;;;;;;;5.70;4.20;;;42.40;54.40;;;;;;5034423;28;20025;-83
2023/07/18 12:40:23;;;;;;;9.57;3.78;;;42.40;53.90;;;;;;5034835;28;20029;-83
2023/07/18 12:42:49;;;;;;;5.57;4.00;;;42.40;54.00;;;;;;5022422;28;20084;-83